createdAt,value
2018-12-17T00:00:29.529Z,39.00
2018-12-17T00:01:29.506Z,39.50
2018-12-17T00:02:29.488Z,39.70
2018-12-17T00:03:29.450Z,38.60
2018-12-17T00:04:29.431Z,39.00
2018-12-17T00:05:30.566Z,38.70
2018-12-17T00:06:29.376Z,38.20
2018-12-17T00:07:29.347Z,38.50
2018-12-17T00:08:32.124Z,38.50
2018-12-17T00:09:29.298Z,39.30
2018-12-17T00:10:29.271Z,39.30
2018-12-17T00:11:29.247Z,36.40
2018-12-17T00:12:29.218Z,38.20
2018-12-17T00:13:29.194Z,37.60
2018-12-17T00:14:29.174Z,37.10
2018-12-17T00:15:29.143Z,37.60
2018-12-17T00:16:29.131Z,36.70
2018-12-17T00:17:29.143Z,36.10
2018-12-17T00:18:29.074Z,37.30
2018-12-17T00:19:29.038Z,37.30
2018-12-17T00:20:29.014Z,38.80
2018-12-17T00:21:28.986Z,37.00
2018-12-17T00:22:28.958Z,37.60
2018-12-17T00:23:28.940Z,37.00
2018-12-17T00:24:28.916Z,38.30
2018-12-17T00:25:28.897Z,36.50
2018-12-17T00:26:28.855Z,35.80
2018-12-17T00:27:28.839Z,36.60
2018-12-17T00:28:28.805Z,34.50
2018-12-17T00:29:28.779Z,34.30
2018-12-17T00:30:28.761Z,34.80
2018-12-17T00:31:28.727Z,34.60
2018-12-17T00:32:28.702Z,33.40
2018-12-17T00:33:28.674Z,34.90
2018-12-17T00:34:28.654Z,35.40
2018-12-17T00:35:28.623Z,34.90
2018-12-17T00:36:28.606Z,34.40
2018-12-17T00:37:28.571Z,33.80
2018-12-17T00:38:28.552Z,34.20
2018-12-17T00:39:28.526Z,34.00
2018-12-17T00:40:28.506Z,34.30
2018-12-17T00:41:28.468Z,34.90
2018-12-17T00:42:28.445Z,34.20
2018-12-17T00:43:28.418Z,34.70
2018-12-17T00:44:28.389Z,34.00
2018-12-17T00:45:28.363Z,34.00
2018-12-17T00:46:28.341Z,34.50
2018-12-17T00:47:28.311Z,34.10
2018-12-17T00:48:28.284Z,34.00
2018-12-17T00:49:28.258Z,34.50
2018-12-17T00:50:28.241Z,34.90
2018-12-17T00:51:28.205Z,34.70
2018-12-17T00:52:28.181Z,34.80
2018-12-17T00:53:28.162Z,35.10
2018-12-17T00:54:28.227Z,34.60
2018-12-17T00:55:28.111Z,33.30
2018-12-17T00:56:28.076Z,32.70
2018-12-17T00:57:28.050Z,33.80
2018-12-17T00:58:28.024Z,32.50
2018-12-17T00:59:27.996Z,33.20
2018-12-17T01:00:27.970Z,32.00
2018-12-17T01:01:27.952Z,33.20
2018-12-17T01:02:27.919Z,31.40
2018-12-17T01:03:27.892Z,30.60
2018-12-17T01:04:27.867Z,32.70
2018-12-17T01:05:27.848Z,30.00
2018-12-17T01:06:27.821Z,30.80
2018-12-17T01:07:27.795Z,30.10
2018-12-17T01:08:27.811Z,30.80
2018-12-17T01:09:27.742Z,29.50
2018-12-17T01:10:27.718Z,30.50
2018-12-17T01:11:27.689Z,30.60
2018-12-17T01:12:27.657Z,29.20
2018-12-17T01:13:27.630Z,29.20
2018-12-17T01:14:27.605Z,29.80
2018-12-17T01:15:27.593Z,27.80
2018-12-17T01:16:27.561Z,29.30
2018-12-17T01:17:27.527Z,28.80
2018-12-17T01:18:27.507Z,29.10
2018-12-17T01:19:27.476Z,29.40
2018-12-17T01:20:27.457Z,27.70
2018-12-17T01:21:27.424Z,28.20
2018-12-17T01:22:27.403Z,27.70
2018-12-17T01:23:27.370Z,28.00
2018-12-17T01:24:27.343Z,26.70
2018-12-17T01:25:27.317Z,28.70
2018-12-17T01:26:27.295Z,29.10
2018-12-17T01:27:27.277Z,28.10
2018-12-17T01:28:27.239Z,28.20
2018-12-17T01:29:27.210Z,27.70
2018-12-17T01:30:27.187Z,26.20
2018-12-17T01:31:27.167Z,26.90
2018-12-17T01:32:27.144Z,28.30
2018-12-17T01:33:27.116Z,27.40
2018-12-17T01:34:27.081Z,27.70
2018-12-17T01:35:27.064Z,26.90
2018-12-17T01:36:27.027Z,27.50
2018-12-17T01:37:27.011Z,27.60
2018-12-17T01:38:26.989Z,26.70
2018-12-17T01:39:26.952Z,25.70
2018-12-17T01:40:26.924Z,27.50
2018-12-17T01:41:26.896Z,26.40
2018-12-17T01:42:26.871Z,25.60
2018-12-17T01:43:26.853Z,26.40
2018-12-17T01:44:26.819Z,26.90
2018-12-17T01:45:26.793Z,26.30
2018-12-17T01:46:26.766Z,24.70
2018-12-17T01:47:26.739Z,26.60
2018-12-17T01:48:26.714Z,26.60
2018-12-17T01:49:26.688Z,25.70
2018-12-17T01:50:26.662Z,25.00
2018-12-17T01:51:26.645Z,26.50
2018-12-17T01:52:26.609Z,26.60
2018-12-17T01:53:26.585Z,25.90
2018-12-17T01:54:26.558Z,26.10
2018-12-17T01:55:26.532Z,25.10
2018-12-17T01:56:26.509Z,25.90
2018-12-17T01:57:26.478Z,27.00
2018-12-17T01:58:29.371Z,24.90
2018-12-17T01:59:26.427Z,23.20
2018-12-17T02:00:26.410Z,24.20
2018-12-17T02:01:26.375Z,24.50
2018-12-17T02:02:26.363Z,24.60
2018-12-17T02:03:26.332Z,24.80
2018-12-17T02:04:26.298Z,24.20
2018-12-17T02:05:26.270Z,25.40
2018-12-17T02:06:26.243Z,24.20
2018-12-17T02:07:26.217Z,24.00
2018-12-17T02:08:26.191Z,24.60
2018-12-17T02:09:26.165Z,23.40
2018-12-17T02:10:26.142Z,24.30
2018-12-17T02:11:26.126Z,24.00
2018-12-17T02:12:26.088Z,24.70
2018-12-17T02:13:26.068Z,25.80
2018-12-17T02:14:26.038Z,25.10
2018-12-17T02:15:26.011Z,23.70
2018-12-17T02:16:25.983Z,24.00
2018-12-17T02:17:25.955Z,24.80
2018-12-17T02:18:25.947Z,24.40
2018-12-17T02:19:25.918Z,22.50
2018-12-17T02:20:25.888Z,23.40
2018-12-17T02:21:25.850Z,21.90
2018-12-17T02:22:25.824Z,23.30
2018-12-17T02:23:25.803Z,22.80
2018-12-17T02:24:25.771Z,22.70
2018-12-17T02:25:25.781Z,23.20
2018-12-17T02:26:25.719Z,21.90
2018-12-17T02:27:25.695Z,21.80
2018-12-17T02:28:25.668Z,22.10
2018-12-17T02:29:25.642Z,22.80
2018-12-17T02:30:25.615Z,22.00
2018-12-17T02:31:25.591Z,21.90
2018-12-17T02:32:25.562Z,21.90
2018-12-17T02:33:25.535Z,22.50
2018-12-17T02:34:25.516Z,22.00
2018-12-17T02:35:25.484Z,22.50
2018-12-17T02:36:25.462Z,21.90
2018-12-17T02:37:25.429Z,21.80
2018-12-17T02:38:25.403Z,21.30
2018-12-17T02:39:25.385Z,21.60
2018-12-17T02:40:25.359Z,20.00
2018-12-17T02:41:25.326Z,21.20
2018-12-17T02:42:25.479Z,19.90
2018-12-17T02:43:25.271Z,21.70
2018-12-17T02:44:25.253Z,21.30
2018-12-17T02:45:25.220Z,20.80
2018-12-17T02:46:25.196Z,19.70
2018-12-17T02:47:25.166Z,20.20
2018-12-17T02:48:25.138Z,20.80
2018-12-17T02:49:25.114Z,20.20
2018-12-17T02:50:25.088Z,20.60
2018-12-17T02:51:25.118Z,20.00
2018-12-17T02:52:25.034Z,19.40
2018-12-17T02:53:25.008Z,20.00
2018-12-17T02:54:24.993Z,19.30
2018-12-17T02:55:24.956Z,19.10
2018-12-17T02:56:24.930Z,19.40
2018-12-17T02:57:24.902Z,18.10
2018-12-17T02:58:24.886Z,18.30
2018-12-17T02:59:24.852Z,18.90
2018-12-17T03:00:24.823Z,19.20
2018-12-17T03:01:24.796Z,18.60
2018-12-17T03:02:24.777Z,19.10
2018-12-17T03:03:24.743Z,17.90
2018-12-17T03:04:24.719Z,17.90
2018-12-17T03:05:24.691Z,18.00
2018-12-17T03:06:24.664Z,18.50
2018-12-17T03:07:24.638Z,18.40
2018-12-17T03:08:24.612Z,19.40
2018-12-17T03:09:24.585Z,19.00
2018-12-17T03:10:24.559Z,18.70
2018-12-17T03:11:24.537Z,18.30
2018-12-17T03:12:24.505Z,19.00
2018-12-17T03:13:24.629Z,18.10
2018-12-17T03:14:24.457Z,18.40
2018-12-17T03:15:24.425Z,18.40
2018-12-17T03:16:24.399Z,18.80
2018-12-17T03:17:24.372Z,19.10
2018-12-17T03:18:24.349Z,18.60
2018-12-17T03:19:24.319Z,19.50
2018-12-17T03:20:24.296Z,18.70
2018-12-17T03:21:24.266Z,18.50
2018-12-17T03:22:24.249Z,17.80
2018-12-17T03:23:24.218Z,18.00
2018-12-17T03:24:24.191Z,18.10
2018-12-17T03:25:24.164Z,19.50
2018-12-17T03:26:24.135Z,18.70
2018-12-17T03:27:24.109Z,17.80
2018-12-17T03:28:24.084Z,17.00
2018-12-17T03:29:24.066Z,17.30
2018-12-17T03:30:24.081Z,18.00
2018-12-17T03:31:24.005Z,17.90
2018-12-17T03:32:23.980Z,18.80
2018-12-17T03:33:23.952Z,18.00
2018-12-17T03:34:23.927Z,17.40
2018-12-17T03:35:23.902Z,17.90
2018-12-17T03:36:23.874Z,18.20
2018-12-17T03:37:23.848Z,18.60
2018-12-17T03:38:23.831Z,18.80
2018-12-17T03:39:23.794Z,18.50
2018-12-17T03:40:23.775Z,17.90
2018-12-17T03:41:23.742Z,17.70
2018-12-17T03:42:23.725Z,18.90
2018-12-17T03:43:23.693Z,18.00
2018-12-17T03:44:23.665Z,17.60
2018-12-17T03:45:23.638Z,17.80
2018-12-17T03:46:23.611Z,17.80
2018-12-17T03:47:23.594Z,17.80
2018-12-17T03:48:23.560Z,18.90
2018-12-17T03:49:23.533Z,17.30
2018-12-17T03:50:23.516Z,16.60
2018-12-17T03:51:23.478Z,17.00
2018-12-17T03:52:23.452Z,18.90
2018-12-17T03:53:23.430Z,17.80
2018-12-17T03:54:23.399Z,17.40
2018-12-17T03:55:23.373Z,17.50
2018-12-17T03:56:23.351Z,19.00
2018-12-17T03:57:23.323Z,17.80
2018-12-17T03:58:23.295Z,17.90
2018-12-17T03:59:23.269Z,17.30
2018-12-17T04:00:23.241Z,18.70
2018-12-17T04:01:23.216Z,17.60
2018-12-17T04:02:23.189Z,17.30
2018-12-17T04:03:23.163Z,18.00
2018-12-17T04:04:23.145Z,17.30
2018-12-17T04:05:23.116Z,17.20
2018-12-17T04:06:23.083Z,17.80
2018-12-17T04:07:23.058Z,17.20
2018-12-17T04:08:23.030Z,17.50
2018-12-17T04:09:23.004Z,17.40
2018-12-17T04:10:22.981Z,17.50
2018-12-17T04:11:22.955Z,16.20
2018-12-17T04:12:22.944Z,16.90
2018-12-17T04:13:22.909Z,17.20
2018-12-17T04:14:22.872Z,17.10
2018-12-17T04:15:22.851Z,17.60
2018-12-17T04:16:22.825Z,16.90
2018-12-17T04:17:22.797Z,15.90
2018-12-17T04:18:22.782Z,15.90
2018-12-17T04:19:22.742Z,17.30
2018-12-17T04:20:22.716Z,17.60
2018-12-17T04:21:22.689Z,17.40
2018-12-17T04:22:22.663Z,16.40
2018-12-17T04:23:22.637Z,16.30
2018-12-17T04:24:22.611Z,16.10
2018-12-17T04:25:22.583Z,16.70
2018-12-17T04:26:22.557Z,16.40
2018-12-17T04:27:22.534Z,17.40
2018-12-17T04:28:22.533Z,17.30
2018-12-17T04:29:22.482Z,16.50
2018-12-17T04:30:22.456Z,16.10
2018-12-17T04:31:22.427Z,16.30
2018-12-17T04:32:22.405Z,16.60
2018-12-17T04:33:22.376Z,15.60
2018-12-17T04:34:22.349Z,17.40
2018-12-17T04:35:22.331Z,17.60
2018-12-17T04:36:22.297Z,16.20
2018-12-17T04:37:22.270Z,16.80
2018-12-17T04:38:22.252Z,16.80
2018-12-17T04:39:22.217Z,17.00
2018-12-17T04:40:22.201Z,17.10
2018-12-17T04:41:22.164Z,16.10
2018-12-17T04:42:22.189Z,16.30
2018-12-17T04:43:22.119Z,16.10
2018-12-17T04:44:22.086Z,15.90
2018-12-17T04:45:22.064Z,16.80
2018-12-17T04:46:22.037Z,16.30
2018-12-17T04:47:22.011Z,16.80
2018-12-17T04:48:21.982Z,16.10
2018-12-17T04:49:21.957Z,16.20
2018-12-17T04:50:21.938Z,16.60
2018-12-17T04:51:21.910Z,16.30
2018-12-17T04:52:21.884Z,16.90
2018-12-17T04:53:21.855Z,16.80
2018-12-17T04:54:21.826Z,17.00
2018-12-17T04:55:21.802Z,17.10
2018-12-17T04:56:21.774Z,16.80
2018-12-17T04:57:21.752Z,16.00
2018-12-17T04:58:21.723Z,16.70
2018-12-17T04:59:21.701Z,16.20
2018-12-17T05:00:21.679Z,15.50
2018-12-17T05:01:21.648Z,15.20
2018-12-17T05:02:21.619Z,15.40
2018-12-17T05:03:21.592Z,16.10
2018-12-17T05:04:21.569Z,15.80
2018-12-17T05:05:21.541Z,16.20
2018-12-17T05:06:21.514Z,16.30
2018-12-17T05:07:21.490Z,16.30
2018-12-17T05:08:21.472Z,15.40
2018-12-17T05:09:21.436Z,15.20
2018-12-17T05:10:21.412Z,15.00
2018-12-17T05:11:21.386Z,15.60
2018-12-17T05:12:21.361Z,15.80
2018-12-17T05:13:21.340Z,15.10
2018-12-17T05:14:21.308Z,15.20
2018-12-17T05:15:21.280Z,15.40
2018-12-17T05:16:21.268Z,15.60
2018-12-17T05:17:21.233Z,16.00
2018-12-17T05:18:21.205Z,16.10
2018-12-17T05:19:21.179Z,15.10
2018-12-17T05:20:21.150Z,16.40
2018-12-17T05:21:21.135Z,15.80
2018-12-17T05:22:21.099Z,16.40
2018-12-17T05:23:21.084Z,15.00
2018-12-17T05:24:21.049Z,15.50
2018-12-17T05:25:21.026Z,16.20
2018-12-17T05:26:20.993Z,15.70
2018-12-17T05:27:20.966Z,16.70
2018-12-17T05:28:20.944Z,16.00
2018-12-17T05:29:21.725Z,15.20
2018-12-17T05:30:20.890Z,15.90
2018-12-17T05:31:20.864Z,16.50
2018-12-17T05:32:20.837Z,16.30
2018-12-17T05:33:20.824Z,16.30
2018-12-17T05:34:20.787Z,16.00
2018-12-17T05:35:20.766Z,15.60
2018-12-17T05:36:20.741Z,14.90
2018-12-17T05:37:20.704Z,15.40
2018-12-17T05:38:20.679Z,14.50
2018-12-17T05:39:20.656Z,15.20
2018-12-17T05:40:20.627Z,14.60
2018-12-17T05:41:20.599Z,16.30
2018-12-17T05:42:20.577Z,15.30
2018-12-17T05:43:20.547Z,15.20
2018-12-17T05:44:20.543Z,16.20
2018-12-17T05:45:20.494Z,15.30
2018-12-17T05:46:20.477Z,15.50
2018-12-17T05:47:20.443Z,15.90
2018-12-17T05:48:20.420Z,14.80
2018-12-17T05:49:20.390Z,15.10
2018-12-17T05:50:20.372Z,15.80
2018-12-17T05:51:20.351Z,15.70
2018-12-17T05:52:20.311Z,14.50
2018-12-17T05:53:20.299Z,15.50
2018-12-17T05:54:20.262Z,14.40
2018-12-17T05:55:20.239Z,14.10
2018-12-17T05:56:20.218Z,14.20
2018-12-17T05:57:20.185Z,14.70
2018-12-17T05:58:20.154Z,14.60
2018-12-17T05:59:20.129Z,14.70
2018-12-17T06:00:20.103Z,14.10
2018-12-17T06:01:20.077Z,14.30
2018-12-17T06:02:20.049Z,14.20
2018-12-17T06:03:20.031Z,14.50
2018-12-17T06:04:19.997Z,14.70
2018-12-17T06:05:19.972Z,14.90
2018-12-17T06:06:19.947Z,15.00
2018-12-17T06:07:19.921Z,14.40
2018-12-17T06:08:19.897Z,14.40
2018-12-17T06:09:19.868Z,14.30
2018-12-17T06:10:19.841Z,14.70
2018-12-17T06:11:19.816Z,14.60
2018-12-17T06:12:19.789Z,13.70
2018-12-17T06:13:19.762Z,14.40
2018-12-17T06:14:19.737Z,14.50
2018-12-17T06:15:19.717Z,13.90
2018-12-17T06:16:19.688Z,14.50
2018-12-17T06:17:19.658Z,13.70
2018-12-17T06:18:19.634Z,13.30
2018-12-17T06:19:19.607Z,15.20
2018-12-17T06:20:19.584Z,13.50
2018-12-17T06:21:19.562Z,13.50
2018-12-17T06:22:19.530Z,13.70
2018-12-17T06:23:19.535Z,13.70
2018-12-17T06:24:19.478Z,15.50
2018-12-17T06:25:19.454Z,16.30
2018-12-17T06:26:19.425Z,14.00
2018-12-17T06:27:19.400Z,13.80
2018-12-17T06:28:19.376Z,14.10
2018-12-17T06:29:19.347Z,13.80
2018-12-17T06:30:19.322Z,14.30
2018-12-17T06:31:19.305Z,14.90
2018-12-17T06:32:19.280Z,13.90
2018-12-17T06:33:19.246Z,13.10
2018-12-17T06:34:19.227Z,13.40
2018-12-17T06:35:19.204Z,13.70
2018-12-17T06:36:19.167Z,14.00
2018-12-17T06:37:19.150Z,13.00
2018-12-17T06:38:19.116Z,13.30
2018-12-17T06:39:19.090Z,13.00
2018-12-17T06:40:19.074Z,12.90
2018-12-17T06:41:19.037Z,13.50
2018-12-17T06:42:19.016Z,12.30
2018-12-17T06:43:19.011Z,13.30
2018-12-17T06:44:18.959Z,12.90
2018-12-17T06:45:18.934Z,12.80
2018-12-17T06:46:18.912Z,13.10
2018-12-17T06:47:18.892Z,13.50
2018-12-17T06:48:18.878Z,12.60
2018-12-17T06:49:18.834Z,11.90
2018-12-17T06:50:18.807Z,12.30
2018-12-17T06:51:18.780Z,12.10
2018-12-17T06:52:18.754Z,11.80
2018-12-17T06:53:18.728Z,11.70
2018-12-17T06:54:18.702Z,11.50
2018-12-17T06:55:18.686Z,11.80
2018-12-17T06:56:18.650Z,11.50
2018-12-17T06:57:18.622Z,11.80
2018-12-17T06:58:18.605Z,10.80
2018-12-17T06:59:18.572Z,11.50
2018-12-17T07:00:18.548Z,10.70
2018-12-17T07:01:18.519Z,9.90
2018-12-17T07:02:18.493Z,10.90
2018-12-17T07:03:18.475Z,10.90
2018-12-17T07:04:18.446Z,10.40
2018-12-17T07:05:18.421Z,11.70
2018-12-17T07:06:18.389Z,11.00
2018-12-17T07:07:18.371Z,11.40
2018-12-17T07:08:18.339Z,10.50
2018-12-17T07:09:18.315Z,10.80
2018-12-17T07:10:18.285Z,11.40
2018-12-17T07:11:18.265Z,9.80
2018-12-17T07:12:18.232Z,11.20
2018-12-17T07:13:18.207Z,11.30
2018-12-17T07:14:18.180Z,10.90
2018-12-17T07:15:18.163Z,10.30
2018-12-17T07:16:18.138Z,11.30
2018-12-17T07:17:18.104Z,10.80
2018-12-17T07:18:18.076Z,10.50
2018-12-17T07:19:18.049Z,11.60
2018-12-17T07:20:18.033Z,12.30
2018-12-17T07:21:18.001Z,11.10
2018-12-17T07:22:18.005Z,11.30
2018-12-17T07:23:17.948Z,11.50
2018-12-17T07:24:17.921Z,11.20
2018-12-17T07:25:17.899Z,11.50
2018-12-17T07:26:17.879Z,11.30
2018-12-17T07:27:17.842Z,11.10
2018-12-17T07:28:17.816Z,11.10
2018-12-17T07:29:17.796Z,11.10
2018-12-17T07:30:17.791Z,11.10
2018-12-17T07:31:17.745Z,11.10
2018-12-17T07:32:18.663Z,11.00
2018-12-17T07:33:17.683Z,11.00
2018-12-17T07:34:17.659Z,10.40
2018-12-17T07:35:17.809Z,10.90
2018-12-17T07:36:17.615Z,10.60
2018-12-17T07:37:17.580Z,11.10
2018-12-17T07:38:17.717Z,10.80
2018-12-17T07:39:17.532Z,10.50
2018-12-17T07:40:17.500Z,11.30
2018-12-17T07:41:17.523Z,10.40
2018-12-17T07:42:17.448Z,11.60
2018-12-17T07:43:17.424Z,10.90
2018-12-17T07:44:17.447Z,11.10
2018-12-17T07:45:17.369Z,10.60
2018-12-17T07:46:17.344Z,11.30
2018-12-17T07:47:17.317Z,10.80
2018-12-17T07:48:17.299Z,10.60
2018-12-17T07:49:17.264Z,10.90
2018-12-17T07:50:17.245Z,10.90
2018-12-17T07:51:17.210Z,11.50
2018-12-17T07:52:17.186Z,10.70
2018-12-17T07:53:17.160Z,10.60
2018-12-17T07:54:17.133Z,11.10
2018-12-17T07:55:17.106Z,10.90
2018-12-17T07:56:17.080Z,10.40
2018-12-17T07:57:17.054Z,10.70
2018-12-17T07:58:17.033Z,10.50
2018-12-17T07:59:17.011Z,11.10
2018-12-17T08:00:16.975Z,10.30
2018-12-17T08:01:16.950Z,9.70
2018-12-17T08:02:16.922Z,10.20
2018-12-17T08:03:16.898Z,10.30
2018-12-17T08:04:16.870Z,9.60
2018-12-17T08:05:16.846Z,10.50
2018-12-17T08:06:16.827Z,12.00
2018-12-17T08:07:16.792Z,10.30
2018-12-17T08:08:16.766Z,9.90
2018-12-17T08:09:16.739Z,10.00
2018-12-17T08:10:16.720Z,9.90
2018-12-17T08:11:16.688Z,10.00
2018-12-17T08:12:16.670Z,10.40
2018-12-17T08:13:16.636Z,10.20
2018-12-17T08:14:16.716Z,10.50
2018-12-17T08:15:16.592Z,10.90
2018-12-17T08:16:16.567Z,10.40
2018-12-17T08:17:16.543Z,9.60
2018-12-17T08:18:16.508Z,10.20
2018-12-17T08:19:16.483Z,10.30
2018-12-17T08:20:16.465Z,11.30
2018-12-17T08:21:16.446Z,10.60
2018-12-17T08:22:16.403Z,10.60
2018-12-17T08:23:16.394Z,10.20
2018-12-17T08:24:16.350Z,10.70
2018-12-17T08:25:16.321Z,10.40
2018-12-17T08:26:16.308Z,11.30
2018-12-17T08:27:16.270Z,10.40
2018-12-17T08:28:16.243Z,11.50
2018-12-17T08:29:16.216Z,10.90
2018-12-17T08:30:16.203Z,10.50
2018-12-17T08:31:16.165Z,11.10
2018-12-17T08:32:16.140Z,10.20
2018-12-17T08:33:16.112Z,10.80
2018-12-17T08:34:16.088Z,11.30
2018-12-17T08:35:16.061Z,10.30
2018-12-17T08:36:16.035Z,11.50
2018-12-17T08:37:16.017Z,10.50
2018-12-17T08:38:15.983Z,9.60
2018-12-17T08:39:15.957Z,10.20
2018-12-17T08:40:15.931Z,9.80
2018-12-17T08:41:15.902Z,10.20
2018-12-17T08:42:15.931Z,10.50
2018-12-17T08:43:15.850Z,10.70
2018-12-17T08:44:15.829Z,9.90
2018-12-17T08:45:15.799Z,10.10
2018-12-17T08:46:15.778Z,10.30
2018-12-17T08:47:15.755Z,10.70
2018-12-17T08:48:15.730Z,10.10
2018-12-17T08:49:15.698Z,11.00
2018-12-17T08:50:15.687Z,10.40
2018-12-17T08:51:15.719Z,10.60
2018-12-17T08:52:15.617Z,10.40
2018-12-17T08:53:15.600Z,10.10
2018-12-17T08:54:15.571Z,10.30
2018-12-17T08:55:15.541Z,10.40
2018-12-17T08:56:15.517Z,8.60
2018-12-17T08:57:15.491Z,9.20
2018-12-17T08:58:15.473Z,9.80
2018-12-17T08:59:15.455Z,9.40
2018-12-17T09:00:15.413Z,10.20
2018-12-17T09:01:15.390Z,9.60
2018-12-17T09:02:15.361Z,8.90
2018-12-17T09:03:15.345Z,9.60
2018-12-17T09:04:15.320Z,9.40
2018-12-17T09:05:15.293Z,8.90
2018-12-17T09:06:15.258Z,9.60
2018-12-17T09:07:15.234Z,9.80
2018-12-17T09:08:15.216Z,9.90
2018-12-17T09:09:15.186Z,9.30
2018-12-17T09:10:15.175Z,9.30
2018-12-17T09:11:15.141Z,8.50
2018-12-17T09:12:15.110Z,9.60
2018-12-17T09:13:15.087Z,9.00
2018-12-17T09:14:15.057Z,8.40
2018-12-17T09:15:15.031Z,9.20
2018-12-17T09:16:15.007Z,8.50
2018-12-17T09:17:14.985Z,8.40
2018-12-17T09:18:15.056Z,8.90
2018-12-17T09:19:14.933Z,8.10
2018-12-17T09:20:14.907Z,8.50
2018-12-17T09:21:14.881Z,8.70
2018-12-17T09:22:14.856Z,8.60
2018-12-17T09:23:14.830Z,8.80
2018-12-17T09:24:14.805Z,8.70
2018-12-17T09:25:14.806Z,8.80
2018-12-17T09:26:14.763Z,8.50
2018-12-17T09:27:14.740Z,8.50
2018-12-17T09:28:14.728Z,9.50
2018-12-17T09:29:14.683Z,9.90
2018-12-17T09:30:18.248Z,9.10
2018-12-17T09:31:14.630Z,8.60
2018-12-17T09:32:14.623Z,8.00
2018-12-17T09:33:14.629Z,8.20
2018-12-17T09:34:14.554Z,9.00
2018-12-17T09:35:14.536Z,8.80
2018-12-17T09:36:14.503Z,9.50
2018-12-17T09:37:14.483Z,9.10
2018-12-17T09:38:14.467Z,8.80
2018-12-17T09:39:14.435Z,8.50
2018-12-17T09:40:14.404Z,8.80
2018-12-17T09:41:14.378Z,8.20
2018-12-17T09:42:14.355Z,7.70
2018-12-17T09:43:14.327Z,8.50
2018-12-17T09:44:14.303Z,8.00
2018-12-17T09:45:14.277Z,8.20
2018-12-17T09:46:14.266Z,8.70
2018-12-17T09:47:14.226Z,7.60
2018-12-17T09:48:14.203Z,8.90
2018-12-17T09:49:14.186Z,9.30
2018-12-17T09:50:14.152Z,8.00
2018-12-17T09:51:19.548Z,8.10
2018-12-17T09:52:14.117Z,8.40
2018-12-17T09:53:14.128Z,8.20
2018-12-17T09:54:14.057Z,8.40
2018-12-17T09:55:14.027Z,8.60
2018-12-17T09:56:14.004Z,8.30
2018-12-17T09:57:13.982Z,8.80
2018-12-17T09:58:13.951Z,8.50
2018-12-17T09:59:13.927Z,8.70
2018-12-17T10:00:13.902Z,9.30
2018-12-17T10:01:13.874Z,8.70
2018-12-17T10:02:13.848Z,8.70
2018-12-17T10:03:13.824Z,8.20
2018-12-17T10:04:13.801Z,8.70
2018-12-17T10:05:13.775Z,9.10
2018-12-17T10:06:13.757Z,8.60
2018-12-17T10:07:13.729Z,9.00
2018-12-17T10:08:13.699Z,8.80
2018-12-17T10:09:13.675Z,9.10
2018-12-17T10:10:13.648Z,9.10
2018-12-17T10:11:13.624Z,8.70
2018-12-17T10:12:13.602Z,8.70
2018-12-17T10:13:13.573Z,9.60
2018-12-17T10:14:13.552Z,9.20
2018-12-17T10:15:13.523Z,9.70
2018-12-17T10:16:13.501Z,10.50
2018-12-17T10:17:13.473Z,9.00
2018-12-17T10:18:13.458Z,9.10
2018-12-17T10:19:13.442Z,9.20
2018-12-17T10:20:13.400Z,8.90
2018-12-17T10:21:13.375Z,9.40
2018-12-17T10:22:13.357Z,9.00
2018-12-17T10:23:13.333Z,9.10
2018-12-17T10:24:13.301Z,10.00
2018-12-17T10:25:13.274Z,8.50
2018-12-17T10:26:13.254Z,9.30
2018-12-17T10:27:13.224Z,9.10
2018-12-17T10:28:13.201Z,9.70
2018-12-17T10:29:13.177Z,10.10
2018-12-17T10:30:13.161Z,10.20
2018-12-17T10:31:13.128Z,9.20
2018-12-17T10:32:13.104Z,9.50
2018-12-17T10:33:13.083Z,9.40
2018-12-17T10:34:13.056Z,9.00
2018-12-17T10:35:13.029Z,8.50
2018-12-17T10:36:13.005Z,9.60
2018-12-17T10:37:12.989Z,9.30
2018-12-17T10:38:12.953Z,8.80
2018-12-17T10:39:13.052Z,9.40
2018-12-17T10:40:12.905Z,8.10
2018-12-17T10:41:12.880Z,8.70
2018-12-17T10:42:12.856Z,8.80
2018-12-17T10:43:12.833Z,8.10
2018-12-17T10:44:12.812Z,8.50
2018-12-17T10:45:12.832Z,8.30
2018-12-17T10:46:12.760Z,9.10
2018-12-17T10:47:12.736Z,8.70
2018-12-17T10:48:12.715Z,8.30
2018-12-17T10:49:12.686Z,9.50
2018-12-17T10:50:12.658Z,9.40
2018-12-17T10:51:12.665Z,8.70
2018-12-17T10:52:12.630Z,8.90
2018-12-17T10:53:12.596Z,8.80
2018-12-17T10:54:12.567Z,8.90
2018-12-17T10:55:12.537Z,8.40
2018-12-17T10:56:12.513Z,8.60
2018-12-17T10:57:12.492Z,9.00
2018-12-17T10:58:12.466Z,8.80
2018-12-17T10:59:12.444Z,9.60
2018-12-17T11:00:12.425Z,9.10
2018-12-17T11:01:12.397Z,8.90
2018-12-17T11:02:12.371Z,9.00
2018-12-17T11:03:12.346Z,9.10
2018-12-17T11:04:12.318Z,9.40
2018-12-17T11:05:12.294Z,9.10
2018-12-17T11:06:12.270Z,8.60
2018-12-17T11:07:12.257Z,9.90
2018-12-17T11:08:12.225Z,8.90
2018-12-17T11:09:12.205Z,9.10
2018-12-17T11:10:12.172Z,9.00
2018-12-17T11:11:12.158Z,9.30
2018-12-17T11:12:12.156Z,9.20
2018-12-17T11:13:12.106Z,9.10
2018-12-17T11:14:12.090Z,9.10
2018-12-17T11:15:12.065Z,9.20
2018-12-17T11:16:12.031Z,10.30
2018-12-17T11:17:12.012Z,9.30
2018-12-17T11:18:11.986Z,9.90
2018-12-17T11:19:11.961Z,9.20
2018-12-17T11:20:11.937Z,8.90
2018-12-17T11:21:11.915Z,9.40
2018-12-17T11:22:11.888Z,10.10
2018-12-17T11:23:11.863Z,9.90
2018-12-17T11:24:11.842Z,9.30
2018-12-17T11:25:11.818Z,9.90
2018-12-17T11:26:11.793Z,8.90
2018-12-17T11:27:11.768Z,9.40
2018-12-17T11:28:11.747Z,10.50
2018-12-17T11:29:11.724Z,10.30
2018-12-17T11:30:12.925Z,9.80
2018-12-17T11:31:11.687Z,10.20
2018-12-17T11:32:11.813Z,9.30
2018-12-17T11:33:11.633Z,9.50
2018-12-17T11:34:11.613Z,8.90
2018-12-17T11:35:11.577Z,10.00
2018-12-17T11:36:11.554Z,9.50
2018-12-17T11:37:11.537Z,9.50
2018-12-17T11:38:11.510Z,10.10
2018-12-17T11:39:11.484Z,10.70
2018-12-17T11:40:11.459Z,10.20
2018-12-17T11:41:11.449Z,9.60
2018-12-17T11:42:11.411Z,10.10
2018-12-17T11:43:11.392Z,10.50
2018-12-17T11:44:11.363Z,10.00
2018-12-17T11:45:11.336Z,10.30
2018-12-17T11:46:11.326Z,9.70
2018-12-17T11:47:11.297Z,10.10
2018-12-17T11:48:11.276Z,10.40
2018-12-17T11:49:11.259Z,10.10
2018-12-17T11:50:11.223Z,10.30
2018-12-17T11:51:11.198Z,10.80
2018-12-17T11:52:11.179Z,10.30
2018-12-17T11:53:11.150Z,10.60
2018-12-17T11:54:11.128Z,10.80
2018-12-17T11:55:11.106Z,11.00
2018-12-17T11:56:11.084Z,10.40
2018-12-17T11:57:11.090Z,10.10
2018-12-17T11:58:11.033Z,11.20
2018-12-17T11:59:11.007Z,10.10
2018-12-17T12:00:10.991Z,10.60
2018-12-17T12:01:10.970Z,10.80
2018-12-17T12:02:10.937Z,10.70
2018-12-17T12:03:10.913Z,10.90
2018-12-17T12:04:10.906Z,11.30
2018-12-17T12:05:10.879Z,11.60
2018-12-17T12:06:14.356Z,10.80
2018-12-17T12:07:10.828Z,11.90
2018-12-17T12:08:10.798Z,12.10
2018-12-17T12:09:10.773Z,12.00
2018-12-17T12:10:10.753Z,11.90
2018-12-17T12:11:10.724Z,12.50
2018-12-17T12:12:10.702Z,12.30
2018-12-17T12:13:10.677Z,12.20
2018-12-17T12:14:10.656Z,12.80
2018-12-17T12:15:10.636Z,11.90
2018-12-17T12:16:10.610Z,12.40
2018-12-17T12:17:10.628Z,12.80
2018-12-17T12:18:10.559Z,13.40
2018-12-17T12:19:10.686Z,15.30
2018-12-17T12:20:10.522Z,15.00
2018-12-17T12:21:10.490Z,14.90
2018-12-17T12:22:10.471Z,13.70
2018-12-17T12:23:10.441Z,14.40
2018-12-17T12:24:10.424Z,14.80
2018-12-17T12:25:10.394Z,13.90
2018-12-17T12:26:10.379Z,15.30
2018-12-17T12:27:10.358Z,15.00
2018-12-17T12:28:10.331Z,14.90
2018-12-17T12:29:10.302Z,15.10
2018-12-17T12:30:10.284Z,16.30
2018-12-17T12:31:10.255Z,16.00
2018-12-17T12:32:10.239Z,16.60
2018-12-17T12:33:10.206Z,16.50
2018-12-17T12:34:10.183Z,16.90
2018-12-17T12:35:10.167Z,17.70
2018-12-17T12:36:10.137Z,16.70
2018-12-17T12:37:10.120Z,18.10
2018-12-17T12:38:10.089Z,17.70
2018-12-17T12:39:10.078Z,18.00
2018-12-17T12:40:10.057Z,16.90
2018-12-17T12:41:10.019Z,17.70
2018-12-17T12:42:10.010Z,18.40
2018-12-17T12:43:09.973Z,18.00
2018-12-17T12:44:09.948Z,18.10
2018-12-17T12:45:09.932Z,18.20
2018-12-17T12:46:09.909Z,19.30
2018-12-17T12:47:09.884Z,19.00
2018-12-17T12:48:09.855Z,19.20
2018-12-17T12:49:09.831Z,19.20
2018-12-17T12:50:09.820Z,19.70
2018-12-17T12:51:09.791Z,19.40
2018-12-17T12:52:09.762Z,19.60
2018-12-17T12:53:09.738Z,20.20
2018-12-17T12:54:09.712Z,19.30
2018-12-17T12:55:09.706Z,20.20
2018-12-17T12:56:09.675Z,19.80
2018-12-17T12:57:09.642Z,20.30